sensor_id;sensor_type;location;lat;lon;timestamp;P1;durP1;ratioP1;P2;durP2;ratioP2
66601;SDS011;53459;51.828;7.872;2022-08-01T00:00:36;29.77;;;14.37;;
66601;SDS011;53459;51.828;7.872;2022-08-01T00:03:02;31.08;;;15.20;;
66601;SDS011;53459;51.828;7.872;2022-08-01T00:05:28;31.52;;;15.93;;
66601;SDS011;53459;51.828;7.872;2022-08-01T00:07:54;33.13;;;15.63;;
66601;SDS011;53459;51.828;7.872;2022-08-01T00:10:19;35.58;;;15.48;;
66601;SDS011;53459;51.828;7.872;2022-08-01T00:12:45;35.77;;;16.80;;
66601;SDS011;53459;51.828;7.872;2022-08-01T00:15:12;31.42;;;15.90;;
66601;SDS011;53459;51.828;7.872;2022-08-01T00:17:39;29.10;;;15.52;;
66601;SDS011;53459;51.828;7.872;2022-08-01T00:20:06;32.08;;;15.75;;
66601;SDS011;53459;51.828;7.872;2022-08-01T00:22:34;31.77;;;16.30;;
66601;SDS011;53459;51.828;7.872;2022-08-01T00:25:00;34.35;;;16.33;;
66601;SDS011;53459;51.828;7.872;2022-08-01T00:27:26;30.63;;;16.50;;
66601;SDS011;53459;51.828;7.872;2022-08-01T00:29:52;35.15;;;17.83;;
66601;SDS011;53459;51.828;7.872;2022-08-01T00:32:18;31.77;;;17.10;;
66601;SDS011;53459;51.828;7.872;2022-08-01T00:34:44;32.35;;;15.90;;
66601;SDS011;53459;51.828;7.872;2022-08-01T00:37:09;32.67;;;16.08;;
66601;SDS011;53459;51.828;7.872;2022-08-01T00:39:35;35.53;;;17.00;;
66601;SDS011;53459;51.828;7.872;2022-08-01T00:42:10;36.03;;;17.13;;
66601;SDS011;53459;51.828;7.872;2022-08-01T00:49:12;37.50;;;17.73;;
66601;SDS011;53459;51.828;7.872;2022-08-01T00:51:38;36.77;;;18.50;;
66601;SDS011;53459;51.828;7.872;2022-08-01T00:54:04;35.63;;;18.17;;
66601;SDS011;53459;51.828;7.872;2022-08-01T00:56:30;38.17;;;18.00;;
66601;SDS011;53459;51.828;7.872;2022-08-01T00:58:56;41.08;;;19.27;;
66601;SDS011;53459;51.828;7.872;2022-08-01T01:01:22;44.00;;;19.52;;
66601;SDS011;53459;51.828;7.872;2022-08-01T01:03:48;40.10;;;19.13;;
66601;SDS011;53459;51.828;7.872;2022-08-01T01:08:58;35.65;;;16.63;;
66601;SDS011;53459;51.828;7.872;2022-08-01T01:14:13;28.87;;;14.83;;
66601;SDS011;53459;51.828;7.872;2022-08-01T01:17:00;23.58;;;13.30;;
66601;SDS011;53459;51.828;7.872;2022-08-01T01:19:30;26.17;;;13.30;;
66601;SDS011;53459;51.828;7.872;2022-08-01T01:27:18;22.50;;;11.85;;
66601;SDS011;53459;51.828;7.872;2022-08-01T01:30:07;25.48;;;11.57;;
66601;SDS011;53459;51.828;7.872;2022-08-01T01:32:38;20.80;;;10.98;;
66601;SDS011;53459;51.828;7.872;2022-08-01T01:35:26;19.92;;;9.70;;
66601;SDS011;53459;51.828;7.872;2022-08-01T01:39:10;18.70;;;8.45;;
66601;SDS011;53459;51.828;7.872;2022-08-01T01:41:39;18.10;;;8.18;;
66601;SDS011;53459;51.828;7.872;2022-08-01T01:44:06;18.45;;;8.57;;
66601;SDS011;53459;51.828;7.872;2022-08-01T01:46:34;15.05;;;7.63;;
66601;SDS011;53459;51.828;7.872;2022-08-01T01:49:01;17.48;;;8.25;;
66601;SDS011;53459;51.828;7.872;2022-08-01T01:53:04;16.70;;;7.97;;
66601;SDS011;53459;51.828;7.872;2022-08-01T01:55:31;16.02;;;7.85;;
66601;SDS011;53459;51.828;7.872;2022-08-01T01:59:00;15.15;;;7.25;;
66601;SDS011;53459;51.828;7.872;2022-08-01T02:02:58;13.65;;;7.22;;
66601;SDS011;53459;51.828;7.872;2022-08-01T02:05:27;13.65;;;6.82;;
66601;SDS011;53459;51.828;7.872;2022-08-01T02:07:53;14.32;;;6.95;;
66601;SDS011;53459;51.828;7.872;2022-08-01T02:10:20;16.13;;;6.33;;
66601;SDS011;53459;51.828;7.872;2022-08-01T02:12:47;13.23;;;6.35;;
66601;SDS011;53459;51.828;7.872;2022-08-01T02:15:15;14.95;;;6.63;;
66601;SDS011;53459;51.828;7.872;2022-08-01T02:17:44;12.47;;;6.07;;
66601;SDS011;53459;51.828;7.872;2022-08-01T02:20:14;13.13;;;6.30;;
66601;SDS011;53459;51.828;7.872;2022-08-01T02:22:46;14.48;;;6.65;;
66601;SDS011;53459;51.828;7.872;2022-08-01T02:25:22;17.70;;;6.60;;
66601;SDS011;53459;51.828;7.872;2022-08-01T02:30:35;14.80;;;6.83;;
66601;SDS011;53459;51.828;7.872;2022-08-01T02:35:59;13.10;;;6.72;;
66601;SDS011;53459;51.828;7.872;2022-08-01T02:38:28;15.02;;;6.35;;
66601;SDS011;53459;51.828;7.872;2022-08-01T02:40:58;14.55;;;6.45;;
66601;SDS011;53459;51.828;7.872;2022-08-01T02:43:28;12.43;;;6.20;;
66601;SDS011;53459;51.828;7.872;2022-08-01T02:48:01;12.75;;;6.05;;
66601;SDS011;53459;51.828;7.872;2022-08-01T02:50:33;13.23;;;5.95;;
66601;SDS011;53459;51.828;7.872;2022-08-01T02:52:59;13.03;;;5.77;;
66601;SDS011;53459;51.828;7.872;2022-08-01T02:55:26;14.80;;;6.15;;
66601;SDS011;53459;51.828;7.872;2022-08-01T02:57:54;14.75;;;6.05;;
66601;SDS011;53459;51.828;7.872;2022-08-01T03:00:21;12.80;;;6.27;;
66601;SDS011;53459;51.828;7.872;2022-08-01T03:02:48;13.07;;;6.18;;
66601;SDS011;53459;51.828;7.872;2022-08-01T03:05:15;12.85;;;6.05;;
66601;SDS011;53459;51.828;7.872;2022-08-01T03:07:42;14.20;;;5.85;;
66601;SDS011;53459;51.828;7.872;2022-08-01T03:10:09;13.63;;;6.28;;
66601;SDS011;53459;51.828;7.872;2022-08-01T03:12:35;15.63;;;6.28;;
66601;SDS011;53459;51.828;7.872;2022-08-01T03:15:05;13.40;;;6.32;;
66601;SDS011;53459;51.828;7.872;2022-08-01T03:17:32;14.40;;;7.18;;
66601;SDS011;53459;51.828;7.872;2022-08-01T03:19:59;15.32;;;7.05;;
66601;SDS011;53459;51.828;7.872;2022-08-01T03:22:27;16.55;;;7.60;;
66601;SDS011;53459;51.828;7.872;2022-08-01T03:24:54;17.98;;;8.32;;
66601;SDS011;53459;51.828;7.872;2022-08-01T03:28:57;18.08;;;8.80;;
66601;SDS011;53459;51.828;7.872;2022-08-01T03:31:36;18.65;;;8.50;;
66601;SDS011;53459;51.828;7.872;2022-08-01T03:34:03;19.80;;;8.37;;
66601;SDS011;53459;51.828;7.872;2022-08-01T03:36:30;16.58;;;8.35;;
66601;SDS011;53459;51.828;7.872;2022-08-01T03:38:58;14.55;;;7.88;;
66601;SDS011;53459;51.828;7.872;2022-08-01T03:41:30;15.90;;;8.20;;
66601;SDS011;53459;51.828;7.872;2022-08-01T03:44:03;16.97;;;8.47;;
66601;SDS011;53459;51.828;7.872;2022-08-01T03:46:36;15.85;;;8.52;;
66601;SDS011;53459;51.828;7.872;2022-08-01T03:49:14;19.25;;;8.15;;
66601;SDS011;53459;51.828;7.872;2022-08-01T03:51:42;19.08;;;9.38;;
66601;SDS011;53459;51.828;7.872;2022-08-01T03:54:10;16.90;;;7.90;;
66601;SDS011;53459;51.828;7.872;2022-08-01T03:56:38;17.08;;;9.10;;
66601;SDS011;53459;51.828;7.872;2022-08-01T03:59:07;21.43;;;9.77;;
66601;SDS011;53459;51.828;7.872;2022-08-01T04:01:34;19.20;;;9.25;;
66601;SDS011;53459;51.828;7.872;2022-08-01T04:04:01;19.23;;;8.90;;
66601;SDS011;53459;51.828;7.872;2022-08-01T04:06:27;20.27;;;9.52;;
66601;SDS011;53459;51.828;7.872;2022-08-01T04:08:52;21.70;;;9.13;;
66601;SDS011;53459;51.828;7.872;2022-08-01T04:11:25;20.00;;;9.50;;
66601;SDS011;53459;51.828;7.872;2022-08-01T04:13:52;19.87;;;9.10;;
66601;SDS011;53459;51.828;7.872;2022-08-01T04:17:30;19.73;;;9.15;;
66601;SDS011;53459;51.828;7.872;2022-08-01T04:19:56;17.65;;;9.32;;
66601;SDS011;53459;51.828;7.872;2022-08-01T04:22:22;21.10;;;9.60;;
66601;SDS011;53459;51.828;7.872;2022-08-01T04:24:49;17.65;;;8.68;;
66601;SDS011;53459;51.828;7.872;2022-08-01T04:27:20;15.57;;;7.80;;
66601;SDS011;53459;51.828;7.872;2022-08-01T04:29:49;17.27;;;8.38;;
66601;SDS011;53459;51.828;7.872;2022-08-01T04:32:21;17.05;;;8.43;;
66601;SDS011;53459;51.828;7.872;2022-08-01T04:34:47;17.57;;;8.90;;
66601;SDS011;53459;51.828;7.872;2022-08-01T04:37:14;15.97;;;8.30;;
66601;SDS011;53459;51.828;7.872;2022-08-01T04:39:42;18.08;;;7.63;;
66601;SDS011;53459;51.828;7.872;2022-08-01T04:42:09;15.65;;;7.85;;
66601;SDS011;53459;51.828;7.872;2022-08-01T04:44:36;14.80;;;7.15;;
66601;SDS011;53459;51.828;7.872;2022-08-01T04:47:02;15.40;;;7.68;;
66601;SDS011;53459;51.828;7.872;2022-08-01T04:49:33;15.82;;;7.63;;
66601;SDS011;53459;51.828;7.872;2022-08-01T04:51:59;16.88;;;7.97;;
66601;SDS011;53459;51.828;7.872;2022-08-01T04:56:22;14.60;;;7.80;;
66601;SDS011;53459;51.828;7.872;2022-08-01T04:58:48;17.52;;;7.47;;
66601;SDS011;53459;51.828;7.872;2022-08-01T05:01:34;17.63;;;8.30;;
66601;SDS011;53459;51.828;7.872;2022-08-01T05:03:59;15.90;;;7.90;;
66601;SDS011;53459;51.828;7.872;2022-08-01T05:06:25;15.93;;;8.13;;
66601;SDS011;53459;51.828;7.872;2022-08-01T05:08:50;17.37;;;7.90;;
66601;SDS011;53459;51.828;7.872;2022-08-01T05:13:00;16.02;;;7.43;;
66601;SDS011;53459;51.828;7.872;2022-08-01T05:15:26;14.93;;;7.40;;
66601;SDS011;53459;51.828;7.872;2022-08-01T05:17:52;14.57;;;6.47;;
66601;SDS011;53459;51.828;7.872;2022-08-01T05:20:17;14.40;;;6.93;;
66601;SDS011;53459;51.828;7.872;2022-08-01T05:22:43;13.13;;;6.38;;
66601;SDS011;53459;51.828;7.872;2022-08-01T05:25:09;14.00;;;6.20;;
66601;SDS011;53459;51.828;7.872;2022-08-01T05:27:34;14.55;;;6.93;;
66601;SDS011;53459;51.828;7.872;2022-08-01T05:30:06;14.43;;;6.28;;
66601;SDS011;53459;51.828;7.872;2022-08-01T05:32:33;14.45;;;6.40;;
66601;SDS011;53459;51.828;7.872;2022-08-01T05:34:59;13.80;;;6.25;;
66601;SDS011;53459;51.828;7.872;2022-08-01T05:37:24;13.80;;;5.90;;
66601;SDS011;53459;51.828;7.872;2022-08-01T05:39:50;12.00;;;5.60;;
66601;SDS011;53459;51.828;7.872;2022-08-01T05:42:16;13.00;;;5.57;;
66601;SDS011;53459;51.828;7.872;2022-08-01T05:44:41;11.73;;;5.93;;
66601;SDS011;53459;51.828;7.872;2022-08-01T05:47:07;11.63;;;5.38;;
66601;SDS011;53459;51.828;7.872;2022-08-01T05:49:32;14.10;;;5.47;;
66601;SDS011;53459;51.828;7.872;2022-08-01T05:51:58;11.90;;;5.33;;
66601;SDS011;53459;51.828;7.872;2022-08-01T05:54:26;12.93;;;5.35;;
66601;SDS011;53459;51.828;7.872;2022-08-01T05:59:16;11.52;;;4.95;;
66601;SDS011;53459;51.828;7.872;2022-08-01T06:01:41;10.27;;;5.05;;
66601;SDS011;53459;51.828;7.872;2022-08-01T06:04:07;10.43;;;4.70;;
66601;SDS011;53459;51.828;7.872;2022-08-01T06:06:32;10.00;;;4.82;;
66601;SDS011;53459;51.828;7.872;2022-08-01T06:08:58;9.47;;;4.53;;
66601;SDS011;53459;51.828;7.872;2022-08-01T06:11:24;9.73;;;4.38;;
66601;SDS011;53459;51.828;7.872;2022-08-01T06:13:50;10.27;;;4.23;;
66601;SDS011;53459;51.828;7.872;2022-08-01T06:17:10;8.57;;;4.07;;
66601;SDS011;53459;51.828;7.872;2022-08-01T06:19:35;8.60;;;4.13;;
66601;SDS011;53459;51.828;7.872;2022-08-01T06:22:01;8.55;;;4.20;;
66601;SDS011;53459;51.828;7.872;2022-08-01T06:24:27;9.90;;;4.70;;
66601;SDS011;53459;51.828;7.872;2022-08-01T06:27:02;10.38;;;4.30;;
66601;SDS011;53459;51.828;7.872;2022-08-01T06:29:29;10.70;;;4.90;;
66601;SDS011;53459;51.828;7.872;2022-08-01T06:31:56;9.93;;;4.60;;
66601;SDS011;53459;51.828;7.872;2022-08-01T06:34:22;9.40;;;4.63;;
66601;SDS011;53459;51.828;7.872;2022-08-01T06:36:48;10.53;;;4.57;;
66601;SDS011;53459;51.828;7.872;2022-08-01T06:39:13;9.25;;;4.35;;
66601;SDS011;53459;51.828;7.872;2022-08-01T06:41:39;8.97;;;4.30;;
66601;SDS011;53459;51.828;7.872;2022-08-01T06:44:06;8.48;;;4.40;;
66601;SDS011;53459;51.828;7.872;2022-08-01T06:46:32;9.30;;;4.75;;
66601;SDS011;53459;51.828;7.872;2022-08-01T06:48:59;9.18;;;4.72;;
66601;SDS011;53459;51.828;7.872;2022-08-01T06:51:24;9.33;;;4.37;;
66601;SDS011;53459;51.828;7.872;2022-08-01T06:53:50;9.93;;;4.40;;
66601;SDS011;53459;51.828;7.872;2022-08-01T06:56:16;9.67;;;4.63;;
66601;SDS011;53459;51.828;7.872;2022-08-01T06:58:41;9.00;;;4.50;;
66601;SDS011;53459;51.828;7.872;2022-08-01T07:01:07;11.05;;;4.55;;
66601;SDS011;53459;51.828;7.872;2022-08-01T07:03:33;9.43;;;4.80;;
66601;SDS011;53459;51.828;7.872;2022-08-01T07:05:59;9.35;;;4.53;;
66601;SDS011;53459;51.828;7.872;2022-08-01T07:08:25;8.67;;;4.40;;
66601;SDS011;53459;51.828;7.872;2022-08-01T07:10:50;8.95;;;4.45;;
66601;SDS011;53459;51.828;7.872;2022-08-01T07:13:16;9.90;;;4.30;;
66601;SDS011;53459;51.828;7.872;2022-08-01T07:15:46;8.45;;;4.20;;
66601;SDS011;53459;51.828;7.872;2022-08-01T07:18:12;7.57;;;4.15;;
66601;SDS011;53459;51.828;7.872;2022-08-01T07:20:38;8.65;;;4.15;;
66601;SDS011;53459;51.828;7.872;2022-08-01T07:23:04;10.93;;;4.60;;
66601;SDS011;53459;51.828;7.872;2022-08-01T07:25:29;10.75;;;4.57;;
66601;SDS011;53459;51.828;7.872;2022-08-01T07:27:55;11.43;;;5.10;;
66601;SDS011;53459;51.828;7.872;2022-08-01T07:30:21;10.10;;;4.80;;
66601;SDS011;53459;51.828;7.872;2022-08-01T07:32:47;12.20;;;5.07;;
66601;SDS011;53459;51.828;7.872;2022-08-01T07:35:12;15.68;;;5.88;;
66601;SDS011;53459;51.828;7.872;2022-08-01T07:37:38;12.40;;;6.20;;
66601;SDS011;53459;51.828;7.872;2022-08-01T07:40:04;13.23;;;6.10;;
66601;SDS011;53459;51.828;7.872;2022-08-01T07:42:42;12.43;;;5.60;;
66601;SDS011;53459;51.828;7.872;2022-08-01T07:45:10;12.25;;;6.55;;
66601;SDS011;53459;51.828;7.872;2022-08-01T07:47:37;9.38;;;4.90;;
66601;SDS011;53459;51.828;7.872;2022-08-01T07:50:03;11.88;;;5.45;;
66601;SDS011;53459;51.828;7.872;2022-08-01T07:52:30;12.52;;;5.65;;
66601;SDS011;53459;51.828;7.872;2022-08-01T07:54:56;10.45;;;5.30;;
66601;SDS011;53459;51.828;7.872;2022-08-01T07:57:23;13.27;;;5.70;;
66601;SDS011;53459;51.828;7.872;2022-08-01T07:59:49;9.93;;;4.80;;
66601;SDS011;53459;51.828;7.872;2022-08-01T08:02:15;9.65;;;5.10;;
66601;SDS011;53459;51.828;7.872;2022-08-01T08:04:41;10.47;;;4.83;;
66601;SDS011;53459;51.828;7.872;2022-08-01T08:07:50;5.82;;;2.90;;
66601;SDS011;53459;51.828;7.872;2022-08-01T08:11:59;7.68;;;3.70;;
66601;SDS011;53459;51.828;7.872;2022-08-01T08:14:24;5.55;;;2.38;;
66601;SDS011;53459;51.828;7.872;2022-08-01T08:16:50;5.80;;;2.20;;
66601;SDS011;53459;51.828;7.872;2022-08-01T08:19:16;5.68;;;2.00;;
66601;SDS011;53459;51.828;7.872;2022-08-01T08:21:42;4.20;;;1.60;;
66601;SDS011;53459;51.828;7.872;2022-08-01T08:24:08;5.05;;;1.60;;
66601;SDS011;53459;51.828;7.872;2022-08-01T08:26:52;4.33;;;1.43;;
66601;SDS011;53459;51.828;7.872;2022-08-01T08:29:19;4.00;;;1.60;;
66601;SDS011;53459;51.828;7.872;2022-08-01T08:31:46;4.75;;;1.60;;
66601;SDS011;53459;51.828;7.872;2022-08-01T08:34:12;4.20;;;1.60;;
66601;SDS011;53459;51.828;7.872;2022-08-01T08:36:38;5.05;;;1.90;;
66601;SDS011;53459;51.828;7.872;2022-08-01T08:39:04;4.17;;;1.60;;
66601;SDS011;53459;51.828;7.872;2022-08-01T08:41:31;5.55;;;1.83;;
66601;SDS011;53459;51.828;7.872;2022-08-01T08:44:04;4.40;;;1.70;;
66601;SDS011;53459;51.828;7.872;2022-08-01T08:46:31;4.30;;;1.20;;
66601;SDS011;53459;51.828;7.872;2022-08-01T08:51:26;3.92;;;1.33;;
66601;SDS011;53459;51.828;7.872;2022-08-01T08:53:56;4.70;;;1.60;;
66601;SDS011;53459;51.828;7.872;2022-08-01T08:56:23;4.57;;;1.48;;
66601;SDS011;53459;51.828;7.872;2022-08-01T08:58:50;4.90;;;1.58;;
66601;SDS011;53459;51.828;7.872;2022-08-01T09:01:16;4.55;;;1.40;;
66601;SDS011;53459;51.828;7.872;2022-08-01T09:03:42;4.30;;;1.65;;
66601;SDS011;53459;51.828;7.872;2022-08-01T09:06:09;4.20;;;1.50;;
66601;SDS011;53459;51.828;7.872;2022-08-01T09:08:35;5.50;;;2.03;;
66601;SDS011;53459;51.828;7.872;2022-08-01T09:11:01;4.87;;;1.90;;
66601;SDS011;53459;51.828;7.872;2022-08-01T09:13:27;4.78;;;1.80;;
66601;SDS011;53459;51.828;7.872;2022-08-01T09:15:53;6.03;;;2.20;;
66601;SDS011;53459;51.828;7.872;2022-08-01T09:18:39;6.40;;;2.10;;
66601;SDS011;53459;51.828;7.872;2022-08-01T09:21:19;5.38;;;2.10;;
66601;SDS011;53459;51.828;7.872;2022-08-01T09:23:49;5.68;;;2.50;;
66601;SDS011;53459;51.828;7.872;2022-08-01T09:26:17;4.82;;;1.95;;
66601;SDS011;53459;51.828;7.872;2022-08-01T09:28:46;4.57;;;1.90;;
66601;SDS011;53459;51.828;7.872;2022-08-01T09:31:14;6.07;;;2.30;;
66601;SDS011;53459;51.828;7.872;2022-08-01T09:33:48;7.90;;;2.80;;
66601;SDS011;53459;51.828;7.872;2022-08-01T09:36:19;6.27;;;2.77;;
66601;SDS011;53459;51.828;7.872;2022-08-01T09:38:46;7.13;;;3.30;;
66601;SDS011;53459;51.828;7.872;2022-08-01T09:41:13;9.45;;;3.58;;
66601;SDS011;53459;51.828;7.872;2022-08-01T09:43:38;9.20;;;4.10;;
66601;SDS011;53459;51.828;7.872;2022-08-01T09:46:13;8.70;;;4.10;;
66601;SDS011;53459;51.828;7.872;2022-08-01T09:48:39;8.68;;;4.15;;
66601;SDS011;53459;51.828;7.872;2022-08-01T09:53:00;12.77;;;4.10;;
66601;SDS011;53459;51.828;7.872;2022-08-01T09:56:38;8.35;;;3.13;;
66601;SDS011;53459;51.828;7.872;2022-08-01T09:59:05;7.00;;;2.53;;
66601;SDS011;53459;51.828;7.872;2022-08-01T10:02:04;7.63;;;2.40;;
66601;SDS011;53459;51.828;7.872;2022-08-01T10:04:23;6.37;;;1.80;;
66601;SDS011;53459;51.828;7.872;2022-08-01T10:06:49;6.38;;;1.90;;
66601;SDS011;53459;51.828;7.872;2022-08-01T10:09:26;4.68;;;1.42;;
66601;SDS011;53459;51.828;7.872;2022-08-01T10:11:55;4.70;;;1.48;;
66601;SDS011;53459;51.828;7.872;2022-08-01T10:14:22;5.07;;;1.58;;
66601;SDS011;53459;51.828;7.872;2022-08-01T10:16:50;4.82;;;1.80;;
66601;SDS011;53459;51.828;7.872;2022-08-01T10:19:18;5.85;;;2.40;;
66601;SDS011;53459;51.828;7.872;2022-08-01T10:21:47;9.13;;;3.17;;
66601;SDS011;53459;51.828;7.872;2022-08-01T10:25:21;7.18;;;3.35;;
66601;SDS011;53459;51.828;7.872;2022-08-01T10:27:52;8.05;;;3.05;;
66601;SDS011;53459;51.828;7.872;2022-08-01T10:32:48;7.97;;;3.63;;
66601;SDS011;53459;51.828;7.872;2022-08-01T10:36:46;6.55;;;3.10;;
66601;SDS011;53459;51.828;7.872;2022-08-01T10:41:03;5.28;;;2.65;;
66601;SDS011;53459;51.828;7.872;2022-08-01T10:43:30;4.85;;;2.00;;
66601;SDS011;53459;51.828;7.872;2022-08-01T10:45:56;5.68;;;2.20;;
66601;SDS011;53459;51.828;7.872;2022-08-01T10:48:35;5.43;;;2.40;;
66601;SDS011;53459;51.828;7.872;2022-08-01T10:51:10;5.60;;;2.70;;
66601;SDS011;53459;51.828;7.872;2022-08-01T10:53:35;5.60;;;2.25;;
66601;SDS011;53459;51.828;7.872;2022-08-01T10:56:03;6.20;;;2.40;;
66601;SDS011;53459;51.828;7.872;2022-08-01T10:58:38;6.00;;;2.50;;
66601;SDS011;53459;51.828;7.872;2022-08-01T11:01:25;5.10;;;2.10;;
66601;SDS011;53459;51.828;7.872;2022-08-01T11:09:00;5.83;;;2.40;;
66601;SDS011;53459;51.828;7.872;2022-08-01T11:11:28;5.40;;;2.20;;
66601;SDS011;53459;51.828;7.872;2022-08-01T11:15:45;6.70;;;2.40;;
66601;SDS011;53459;51.828;7.872;2022-08-01T11:20:56;6.50;;;3.13;;
66601;SDS011;53459;51.828;7.872;2022-08-01T11:23:23;7.22;;;3.15;;
66601;SDS011;53459;51.828;7.872;2022-08-01T11:30:52;6.10;;;3.13;;
66601;SDS011;53459;51.828;7.872;2022-08-01T11:34:04;5.30;;;2.28;;
66601;SDS011;53459;51.828;7.872;2022-08-01T11:36:30;5.97;;;2.25;;
66601;SDS011;53459;51.828;7.872;2022-08-01T11:41:31;5.97;;;2.27;;
66601;SDS011;53459;51.828;7.872;2022-08-01T11:46:55;5.95;;;1.80;;
66601;SDS011;53459;51.828;7.872;2022-08-01T11:52:00;5.13;;;2.30;;
66601;SDS011;53459;51.828;7.872;2022-08-01T11:56:23;6.30;;;2.58;;
66601;SDS011;53459;51.828;7.872;2022-08-01T11:58:49;5.65;;;2.20;;
66601;SDS011;53459;51.828;7.872;2022-08-01T12:01:24;6.53;;;2.08;;
66601;SDS011;53459;51.828;7.872;2022-08-01T12:03:54;4.93;;;2.20;;
66601;SDS011;53459;51.828;7.872;2022-08-01T12:06:27;5.88;;;2.30;;
66601;SDS011;53459;51.828;7.872;2022-08-01T12:08:53;7.40;;;2.70;;
66601;SDS011;53459;51.828;7.872;2022-08-01T12:12:27;5.28;;;2.17;;
66601;SDS011;53459;51.828;7.872;2022-08-01T12:14:54;5.32;;;2.17;;
66601;SDS011;53459;51.828;7.872;2022-08-01T12:17:28;5.88;;;2.40;;
66601;SDS011;53459;51.828;7.872;2022-08-01T12:19:56;5.15;;;2.05;;
66601;SDS011;53459;51.828;7.872;2022-08-01T12:22:22;5.25;;;2.30;;
66601;SDS011;53459;51.828;7.872;2022-08-01T12:24:49;5.38;;;2.30;;
66601;SDS011;53459;51.828;7.872;2022-08-01T12:27:24;4.77;;;1.70;;
66601;SDS011;53459;51.828;7.872;2022-08-01T12:29:51;5.03;;;1.67;;
66601;SDS011;53459;51.828;7.872;2022-08-01T12:32:21;6.40;;;1.80;;
66601;SDS011;53459;51.828;7.872;2022-08-01T12:35:01;4.70;;;1.67;;
66601;SDS011;53459;51.828;7.872;2022-08-01T12:37:29;5.95;;;1.90;;
66601;SDS011;53459;51.828;7.872;2022-08-01T12:39:55;5.07;;;2.00;;
66601;SDS011;53459;51.828;7.872;2022-08-01T12:42:22;4.63;;;1.90;;
66601;SDS011;53459;51.828;7.872;2022-08-01T12:44:50;4.97;;;1.90;;
66601;SDS011;53459;51.828;7.872;2022-08-01T12:47:17;6.57;;;1.90;;
66601;SDS011;53459;51.828;7.872;2022-08-01T12:49:45;4.60;;;1.93;;
66601;SDS011;53459;51.828;7.872;2022-08-01T12:52:12;5.25;;;1.90;;
66601;SDS011;53459;51.828;7.872;2022-08-01T12:57:28;5.90;;;2.70;;
66601;SDS011;53459;51.828;7.872;2022-08-01T12:59:53;4.63;;;1.60;;
66601;SDS011;53459;51.828;7.872;2022-08-01T13:03:14;3.80;;;1.70;;
66601;SDS011;53459;51.828;7.872;2022-08-01T13:05:42;4.77;;;1.40;;
66601;SDS011;53459;51.828;7.872;2022-08-01T13:08:10;3.05;;;1.00;;
66601;SDS011;53459;51.828;7.872;2022-08-01T13:10:37;3.47;;;1.23;;
66601;SDS011;53459;51.828;7.872;2022-08-01T13:13:03;3.70;;;1.40;;
66601;SDS011;53459;51.828;7.872;2022-08-01T13:15:30;3.50;;;1.20;;
66601;SDS011;53459;51.828;7.872;2022-08-01T13:17:58;4.53;;;1.48;;
66601;SDS011;53459;51.828;7.872;2022-08-01T13:20:40;3.78;;;1.27;;
66601;SDS011;53459;51.828;7.872;2022-08-01T13:24:13;4.78;;;1.52;;
66601;SDS011;53459;51.828;7.872;2022-08-01T13:29:07;3.88;;;1.30;;
66601;SDS011;53459;51.828;7.872;2022-08-01T13:31:34;3.78;;;1.38;;
66601;SDS011;53459;51.828;7.872;2022-08-01T13:34:34;4.32;;;1.40;;
66601;SDS011;53459;51.828;7.872;2022-08-01T13:37:00;6.30;;;1.48;;
66601;SDS011;53459;51.828;7.872;2022-08-01T13:39:29;3.93;;;1.40;;
66601;SDS011;53459;51.828;7.872;2022-08-01T13:42:11;4.57;;;1.60;;
66601;SDS011;53459;51.828;7.872;2022-08-01T13:44:38;4.57;;;1.60;;
66601;SDS011;53459;51.828;7.872;2022-08-01T13:47:04;4.10;;;1.60;;
66601;SDS011;53459;51.828;7.872;2022-08-01T13:49:31;5.28;;;1.52;;
66601;SDS011;53459;51.828;7.872;2022-08-01T13:51:57;3.88;;;1.50;;
66601;SDS011;53459;51.828;7.872;2022-08-01T13:54:23;4.43;;;1.63;;
66601;SDS011;53459;51.828;7.872;2022-08-01T13:56:50;4.93;;;1.90;;
66601;SDS011;53459;51.828;7.872;2022-08-01T13:59:16;6.22;;;2.30;;
66601;SDS011;53459;51.828;7.872;2022-08-01T14:01:41;5.43;;;2.40;;
66601;SDS011;53459;51.828;7.872;2022-08-01T14:04:07;7.13;;;2.67;;
66601;SDS011;53459;51.828;7.872;2022-08-01T14:06:33;6.53;;;2.43;;
66601;SDS011;53459;51.828;7.872;2022-08-01T14:09:00;5.95;;;2.60;;
66601;SDS011;53459;51.828;7.872;2022-08-01T14:11:26;6.87;;;2.70;;
66601;SDS011;53459;51.828;7.872;2022-08-01T14:13:52;6.73;;;2.63;;
66601;SDS011;53459;51.828;7.872;2022-08-01T14:16:17;6.15;;;2.40;;
66601;SDS011;53459;51.828;7.872;2022-08-01T14:18:43;6.00;;;2.17;;
66601;SDS011;53459;51.828;7.872;2022-08-01T14:21:09;6.75;;;2.60;;
66601;SDS011;53459;51.828;7.872;2022-08-01T14:23:34;6.30;;;2.67;;
66601;SDS011;53459;51.828;7.872;2022-08-01T14:26:00;7.60;;;2.50;;
66601;SDS011;53459;51.828;7.872;2022-08-01T14:28:26;6.50;;;2.70;;
66601;SDS011;53459;51.828;7.872;2022-08-01T14:30:53;5.47;;;2.15;;
66601;SDS011;53459;51.828;7.872;2022-08-01T14:33:20;6.22;;;2.05;;
66601;SDS011;53459;51.828;7.872;2022-08-01T14:35:46;6.65;;;2.28;;
66601;SDS011;53459;51.828;7.872;2022-08-01T14:38:12;6.33;;;2.20;;
66601;SDS011;53459;51.828;7.872;2022-08-01T14:42:41;6.00;;;2.33;;
66601;SDS011;53459;51.828;7.872;2022-08-01T14:45:09;7.57;;;2.67;;
66601;SDS011;53459;51.828;7.872;2022-08-01T14:47:46;7.22;;;2.47;;
66601;SDS011;53459;51.828;7.872;2022-08-01T14:50:13;5.78;;;2.30;;
66601;SDS011;53459;51.828;7.872;2022-08-01T14:52:40;6.68;;;2.33;;
66601;SDS011;53459;51.828;7.872;2022-08-01T14:55:08;7.27;;;2.40;;
66601;SDS011;53459;51.828;7.872;2022-08-01T14:57:35;6.00;;;2.20;;
66601;SDS011;53459;51.828;7.872;2022-08-01T15:00:02;7.43;;;2.65;;
66601;SDS011;53459;51.828;7.872;2022-08-01T15:02:30;8.93;;;2.35;;
66601;SDS011;53459;51.828;7.872;2022-08-01T15:04:55;7.70;;;2.60;;
66601;SDS011;53459;51.828;7.872;2022-08-01T15:07:21;5.53;;;2.30;;
66601;SDS011;53459;51.828;7.872;2022-08-01T15:09:46;7.50;;;2.17;;
66601;SDS011;53459;51.828;7.872;2022-08-01T15:12:12;5.57;;;1.98;;
66601;SDS011;53459;51.828;7.872;2022-08-01T15:14:38;6.20;;;2.00;;
66601;SDS011;53459;51.828;7.872;2022-08-01T15:17:13;6.90;;;2.22;;
66601;SDS011;53459;51.828;7.872;2022-08-01T15:19:46;6.05;;;2.10;;
66601;SDS011;53459;51.828;7.872;2022-08-01T15:22:13;5.88;;;2.10;;
66601;SDS011;53459;51.828;7.872;2022-08-01T15:24:39;5.10;;;1.80;;
66601;SDS011;53459;51.828;7.872;2022-08-01T15:27:04;6.63;;;2.03;;
66601;SDS011;53459;51.828;7.872;2022-08-01T15:29:30;7.20;;;2.00;;
66601;SDS011;53459;51.828;7.872;2022-08-01T15:31:56;6.70;;;2.15;;
66601;SDS011;53459;51.828;7.872;2022-08-01T15:34:22;6.63;;;2.07;;
66601;SDS011;53459;51.828;7.872;2022-08-01T15:36:48;7.15;;;2.10;;
66601;SDS011;53459;51.828;7.872;2022-08-01T15:39:14;5.53;;;2.03;;
66601;SDS011;53459;51.828;7.872;2022-08-01T15:41:40;8.03;;;2.37;;
66601;SDS011;53459;51.828;7.872;2022-08-01T15:44:06;7.30;;;1.85;;
66601;SDS011;53459;51.828;7.872;2022-08-01T15:46:31;6.45;;;2.28;;
66601;SDS011;53459;51.828;7.872;2022-08-01T15:48:57;7.33;;;2.10;;
66601;SDS011;53459;51.828;7.872;2022-08-01T15:51:26;6.73;;;2.03;;
66601;SDS011;53459;51.828;7.872;2022-08-01T15:54:30;7.68;;;2.28;;
66601;SDS011;53459;51.828;7.872;2022-08-01T15:56:57;6.60;;;2.27;;
66601;SDS011;53459;51.828;7.872;2022-08-01T15:59:22;7.17;;;2.17;;
66601;SDS011;53459;51.828;7.872;2022-08-01T16:03:15;5.68;;;2.03;;
66601;SDS011;53459;51.828;7.872;2022-08-01T16:05:41;7.68;;;2.17;;
66601;SDS011;53459;51.828;7.872;2022-08-01T16:08:08;7.35;;;2.17;;
66601;SDS011;53459;51.828;7.872;2022-08-01T16:10:34;6.43;;;2.25;;
66601;SDS011;53459;51.828;7.872;2022-08-01T16:13:00;7.72;;;2.42;;
66601;SDS011;53459;51.828;7.872;2022-08-01T16:15:25;8.67;;;2.33;;